Time;durP1;ratioP1;P1;durP2;ratioP2;P2;SDS_P1;SDS_P2;PMS_P1;PMS_P2;Temp;Humidity;BMP_temperature;BMP_pressure;BME280_temperature;BME280_humidity;BME280_pressure;Samples;Min_cycle;Max_cycle;Signal;HPM_P1;HPM_P2
2021/12/17 00:05:00;;;;;;;13.45;3.67;;;19.70;71.90;;;;;;10623773;27;20065;-64
2021/12/17 00:10:10;;;;;;;13.63;3.65;;;19.70;71.20;;;;;;10623452;27;20047;-64
2021/12/17 00:15:15;;;;;;;17.65;8.77;;;19.60;71.20;;;;;;10624328;28;20043;-64
2021/12/17 00:53:06;;;;;;;7.78;2.22;;;19.40;71.40;;;;;;10579928;28;20096;-63
2021/12/17 00:58:17;;;;;;;7.68;1.67;;;19.40;71.40;;;;;;10622286;28;20112;-64
2021/12/17 01:03:25;;;;;;;5.68;1.50;;;19.50;71.50;;;;;;10563207;28;20092;-64
2021/12/17 01:08:31;;;;;;;3.55;1.38;;;19.50;71.60;;;;;;10613820;28;20077;-63
2021/12/17 01:13:44;;;;;;;4.68;1.30;;;19.40;71.50;;;;;;10605475;28;20047;-63
2021/12/17 01:19:08;;;;;;;5.45;1.05;;;19.40;71.50;;;;;;10623450;27;20047;-63
2021/12/17 01:24:37;;;;;;;2.63;1.00;;;19.40;71.50;;;;;;10612350;27;20472;-63
2021/12/17 01:35:29;;;;;;;2.95;0.98;;;19.40;71.70;;;;;;10611392;27;20108;-64
2021/12/17 01:45:46;;;;;;;4.07;1.55;;;19.30;71.60;;;;;;10628680;27;20610;-63
2021/12/17 01:56:36;;;;;;;6.47;1.60;;;19.30;71.50;;;;;;10585031;27;20063;-64
2021/12/17 02:01:44;;;;;;;5.68;1.30;;;19.30;71.80;;;;;;10568223;28;20412;-63
2021/12/17 02:06:50;;;;;;;5.40;1.70;;;19.30;71.80;;;;;;10568003;28;20055;-63
2021/12/17 02:33:47;;;;;;;4.85;2.03;;;19.20;71.70;;;;;;10413608;28;20530;-63
2021/12/17 02:39:02;;;;;;;7.32;1.70;;;19.20;71.80;;;;;;10413542;28;20049;-63
2021/12/17 02:49:49;;;;;;;6.38;1.85;;;19.10;71.80;;;;;;10397006;28;20111;-64
2021/12/17 02:54:56;;;;;;;6.20;1.70;;;19.10;71.80;;;;;;10413451;28;20053;-64
2021/12/17 03:00:04;;;;;;;6.63;1.67;;;19.10;71.80;;;;;;10413054;28;20053;-64
2021/12/17 03:05:27;;;;;;;6.15;1.60;;;19.10;71.80;;;;;;10463320;28;20492;-64
2021/12/17 03:10:35;;;;;;;4.10;1.50;;;19.10;71.80;;;;;;10583197;28;20047;-63
2021/12/17 03:15:55;;;;;;;7.63;1.73;;;19.10;71.80;;;;;;10565248;28;20052;-63
2021/12/17 03:26:27;;;;;;;5.05;1.70;;;19.00;71.70;;;;;;10564664;28;20048;-64
2021/12/17 03:31:34;;;;;;;6.47;1.90;;;19.00;71.70;;;;;;10565889;28;20048;-64
2021/12/17 03:36:44;;;;;;;5.80;1.42;;;19.00;71.60;;;;;;10564410;28;20044;-64
2021/12/17 03:41:51;;;;;;;4.97;1.85;;;19.00;71.60;;;;;;10563669;28;20092;-63
2021/12/17 03:47:17;;;;;;;4.05;1.42;;;19.00;71.60;;;;;;10564895;28;20106;-63
2021/12/17 03:52:45;;;;;;;5.20;1.30;;;19.00;71.60;;;;;;10567554;28;20063;-63
2021/12/17 03:57:50;;;;;;;4.57;1.50;;;19.00;71.60;;;;;;10581467;28;20055;-64
2021/12/17 04:02:55;;;;;;;4.97;1.70;;;19.00;71.70;;;;;;10564027;28;20043;-63
2021/12/17 04:08:13;;;;;;;7.67;1.93;;;18.90;71.50;;;;;;10581527;28;20484;-64
2021/12/17 04:13:34;;;;;;;7.53;2.08;;;18.90;71.40;;;;;;10563583;28;20051;-64
2021/12/17 04:18:42;;;;;;;9.38;2.05;;;19.00;71.30;;;;;;10581075;28;20116;-64
2021/12/17 04:23:52;;;;;;;19.60;2.27;;;19.10;71.30;;;;;;10563156;28;20112;-63
2021/12/17 04:28:58;;;;;;;4.32;1.77;;;19.20;71.10;;;;;;10563093;28;20048;-63
2021/12/17 04:34:05;;;;;;;7.53;1.80;;;19.40;70.70;;;;;;10563553;28;20089;-64
2021/12/17 04:39:11;;;;;;;5.90;2.03;;;19.50;70.60;;;;;;10580896;28;20286;-64
2021/12/17 05:00:21;;;;;;;7.38;1.70;;;20.00;69.80;;;;;;10570595;28;20077;-63
2021/12/17 05:05:37;;;;;;;5.28;1.48;;;20.10;69.60;;;;;;10570777;28;20100;-63
2021/12/17 05:21:53;;;;;;;7.75;1.83;;;20.30;69.30;;;;;;10570189;28;20044;-63
2021/12/17 05:26:58;;;;;;;6.75;1.80;;;20.40;69.20;;;;;;10587239;28;20449;-63
2021/12/17 05:32:10;;;;;;;14.52;2.30;;;20.50;69.10;;;;;;10569681;28;20040;-63
2021/12/17 05:37:16;;;;;;;6.70;1.85;;;20.60;68.90;;;;;;10568954;28;20532;-64
2021/12/17 05:42:21;;;;;;;9.80;1.85;;;20.70;68.90;;;;;;10568657;28;20121;-64
2021/12/17 05:47:34;;;;;;;6.43;1.70;;;20.70;68.90;;;;;;10568732;28;20051;-64
2021/12/17 05:52:49;;;;;;;7.38;2.35;;;20.70;68.80;;;;;;10569749;28;20055;-66
2021/12/17 05:57:58;;;;;;;7.47;2.00;;;20.80;68.80;;;;;;10568419;28;20393;-66
2021/12/17 06:03:03;;;;;;;7.30;2.05;;;20.80;68.60;;;;;;10577453;27;20051;-67
2021/12/17 06:08:31;;;;;;;24.03;2.07;;;20.90;68.70;;;;;;10584511;28;20508;-67
2021/12/17 06:13:36;;;;;;;12.43;2.03;;;20.80;68.80;;;;;;10568034;28;20105;-67
2021/12/17 06:18:41;;;;;;;12.10;1.83;;;20.80;68.80;;;;;;10585763;28;20047;-67
2021/12/17 06:23:46;;;;;;;8.63;1.77;;;20.80;68.70;;;;;;10567501;28;20040;-69
2021/12/17 06:28:52;;;;;;;11.07;1.73;;;20.80;68.70;;;;;;10585506;28;20035;-69
2021/12/17 06:34:01;;;;;;;16.60;1.67;;;20.80;69.10;;;;;;10567459;28;20048;-69
2021/12/17 06:39:09;;;;;;;15.07;2.22;;;20.80;69.70;;;;;;10586498;27;20031;-68
2021/12/17 06:44:20;;;;;;;10.43;2.33;;;20.70;70.00;;;;;;10608799;27;20040;-66
2021/12/17 07:01:13;;;;;;;9.07;2.13;;;20.60;70.50;;;;;;10619305;27;20563;-68
2021/12/17 07:07:43;;;;;;;10.20;1.40;;;20.70;70.70;;;;;;10547362;27;20059;-68
2021/12/17 07:18:47;;;;;;;9.60;1.85;;;20.50;70.50;;;;;;10625181;27;20051;-69
2021/12/17 07:23:26;;;;;;;5.05;1.20;;;20.50;70.30;;;;;;10607109;27;20487;-69
2021/12/17 07:33:57;;;;;;;8.32;1.48;;;20.50;70.00;;;;;;10606671;27;20103;-68
2021/12/17 07:39:20;;;;;;;7.43;2.28;;;20.40;69.80;;;;;;10625220;27;20476;-68
2021/12/17 07:44:35;;;;;;;5.82;1.85;;;20.40;69.70;;;;;;10590991;27;20062;-68
2021/12/17 07:50:01;;;;;;;11.38;2.55;;;20.30;69.60;;;;;;10606769;27;20046;-69
2021/12/17 07:55:09;;;;;;;7.32;2.42;;;20.30;69.50;;;;;;10605526;27;20055;-68
2021/12/17 08:00:17;;;;;;;6.63;2.05;;;20.20;69.40;;;;;;10605783;27;20156;-68
2021/12/17 08:05:24;;;;;;;10.10;2.13;;;20.20;70.00;;;;;;10625137;27;20070;-68
2021/12/17 08:10:33;;;;;;;7.72;2.03;;;20.20;69.40;;;;;;10606313;28;20036;-68
2021/12/17 08:15:56;;;;;;;4.88;1.83;;;20.20;69.30;;;;;;10605697;28;20043;-68
2021/12/17 08:31:41;;;;;;;9.02;2.58;;;20.10;69.10;;;;;;10612536;27;20065;-68
2021/12/17 08:36:57;;;;;;;9.45;2.42;;;20.10;69.00;;;;;;10613775;27;20047;-68
2021/12/17 08:42:06;;;;;;;5.90;2.45;;;20.10;69.00;;;;;;10614321;27;20384;-68
2021/12/17 08:47:11;;;;;;;6.50;2.42;;;20.00;68.90;;;;;;10613243;27;20402;-67
2021/12/17 08:52:16;;;;;;;7.40;2.33;;;20.00;68.80;;;;;;10614264;27;20406;-68
2021/12/17 08:57:22;;;;;;;7.13;2.80;;;20.00;68.80;;;;;;10630598;27;20089;-68
2021/12/17 09:02:35;;;;;;;5.13;2.38;;;20.00;68.80;;;;;;10613420;27;20047;-68
2021/12/17 09:08:13;;;;;;;7.60;2.42;;;20.00;68.70;;;;;;10563695;27;20047;-68
2021/12/17 09:13:28;;;;;;;8.93;2.60;;;19.90;68.70;;;;;;10613744;27;20039;-68
2021/12/17 09:18:37;;;;;;;7.68;2.78;;;19.90;68.60;;;;;;10612047;27;20096;-68
2021/12/17 09:23:55;;;;;;;6.70;2.37;;;19.90;68.50;;;;;;10613308;27;20108;-68
2021/12/17 09:29:01;;;;;;;8.05;2.70;;;19.90;68.50;;;;;;10596086;27;20043;-68
2021/12/17 09:34:06;;;;;;;7.95;3.05;;;19.90;68.40;;;;;;10629190;27;20047;-68
2021/12/17 09:39:18;;;;;;;7.90;2.90;;;19.80;68.40;;;;;;10629356;27;20047;-68
2021/12/17 09:44:24;;;;;;;8.95;2.70;;;19.90;68.40;;;;;;10630533;27;20040;-68
2021/12/17 09:49:32;;;;;;;5.32;2.33;;;19.80;68.30;;;;;;10629861;27;20039;-68
2021/12/17 09:54:37;;;;;;;5.95;2.53;;;19.80;68.30;;;;;;10628526;27;20100;-68
2021/12/17 09:59:45;;;;;;;6.00;2.45;;;19.90;68.30;;;;;;10629428;27;20068;-68
2021/12/17 10:04:55;;;;;;;8.35;3.13;;;19.80;68.20;;;;;;10610397;27;20068;-69
2021/12/17 10:10:06;;;;;;;7.53;2.42;;;19.80;68.10;;;;;;10628281;27;20055;-68
2021/12/17 10:15:18;;;;;;;6.38;2.75;;;19.80;68.00;;;;;;10642890;27;20076;-68
2021/12/17 10:20:24;;;;;;;6.70;2.75;;;19.80;68.00;;;;;;10628102;27;20051;-67
2021/12/17 10:25:30;;;;;;;6.53;2.40;;;19.80;67.90;;;;;;10627549;27;20064;-67
2021/12/17 10:30:39;;;;;;;8.00;2.65;;;19.80;67.90;;;;;;10627400;27;20043;-67
2021/12/17 10:35:47;;;;;;;7.22;2.53;;;19.80;67.90;;;;;;10628100;27;20039;-67
2021/12/17 10:41:03;;;;;;;7.13;2.35;;;19.80;67.80;;;;;;10627617;27;20043;-68
2021/12/17 10:56:52;;;;;;;5.95;2.50;;;19.80;67.80;;;;;;10625922;27;20404;-67
2021/12/17 11:02:10;;;;;;;9.13;2.45;;;19.70;67.70;;;;;;10626121;27;20435;-67
2021/12/17 11:07:20;;;;;;;7.53;2.35;;;19.70;67.60;;;;;;10626355;27;20507;-67
2021/12/17 11:12:36;;;;;;;4.90;2.42;;;19.70;67.60;;;;;;10625657;27;20047;-67
2021/12/17 11:17:50;;;;;;;6.10;2.30;;;19.70;67.60;;;;;;10625597;27;20483;-68
2021/12/17 11:22:57;;;;;;;6.85;2.63;;;19.70;67.60;;;;;;10607046;27;20166;-67
2021/12/17 11:28:05;;;;;;;8.55;3.30;;;19.60;67.60;;;;;;10625152;27;20047;-67
2021/12/17 11:33:10;;;;;;;;;;;19.70;67.50;;;;;;10625506;27;20100;-67
2021/12/17 11:38:30;;;;;;;6.65;2.90;;;19.60;67.40;;;;;;10625273;27;19920;-67
2021/12/17 11:43:59;;;;;;;6.05;2.70;;;19.60;67.40;;;;;;10624703;27;20457;-67
2021/12/17 11:49:12;;;;;;;;;;;19.60;67.30;;;;;;10624945;27;20051;-67
2021/12/17 11:54:26;;;;;;;7.30;2.80;;;19.60;67.10;;;;;;10624415;27;19919;-67
2021/12/17 11:59:37;;;;;;;7.53;3.13;;;19.50;67.20;;;;;;10624736;27;20096;-68
2021/12/17 12:04:59;;;;;;;6.90;3.05;;;19.50;67.10;;;;;;10623615;27;20051;-68
2021/12/17 12:10:22;;;;;;;7.32;3.13;;;19.50;67.00;;;;;;10606492;27;20457;-68
2021/12/17 12:15:32;;;;;;;9.13;3.08;;;19.50;66.90;;;;;;10624469;28;20096;-67
2021/12/17 12:21:11;;;;;;;11.30;4.10;;;19.50;66.90;;;;;;10581115;28;20104;-68
2021/12/17 12:26:20;;;;;;;10.93;3.42;;;19.40;66.70;;;;;;10623964;28;20436;-67
2021/12/17 12:31:25;;;;;;;10.77;3.85;;;19.40;66.80;;;;;;10638313;27;20050;-68
2021/12/17 12:37:09;;;;;;;8.95;3.60;;;19.40;66.80;;;;;;10624421;28;20048;-67
2021/12/17 12:42:38;;;;;;;11.30;3.72;;;19.40;66.80;;;;;;10623397;28;20108;-68
2021/12/17 12:47:55;;;;;;;9.25;4.00;;;19.40;66.90;;;;;;10623679;28;20369;-68
2021/12/17 12:53:10;;;;;;;9.43;3.67;;;19.40;67.00;;;;;;10624963;28;20073;-68
2021/12/17 12:58:27;;;;;;;11.93;3.97;;;19.40;67.10;;;;;;10578762;28;20047;-67
2021/12/17 13:03:35;;;;;;;9.05;3.80;;;19.40;67.10;;;;;;10581111;28;20040;-67
2021/12/17 13:08:43;;;;;;;7.70;3.73;;;19.40;67.10;;;;;;10580642;28;20480;-67
2021/12/17 13:13:59;;;;;;;41.15;6.45;;;19.40;67.10;;;;;;10579593;28;20413;-67
2021/12/17 13:24:32;;;;;;;10.15;4.38;;;19.40;66.90;;;;;;10586266;28;20442;-67
2021/12/17 13:29:45;;;;;;;9.73;3.80;;;19.40;66.90;;;;;;10587470;28;20044;-67
2021/12/17 13:34:54;;;;;;;8.68;3.45;;;19.30;66.70;;;;;;10587214;28;20101;-67
2021/12/17 13:40:07;;;;;;;8.05;3.40;;;19.30;66.70;;;;;;10585944;28;20485;-67
2021/12/17 13:45:21;;;;;;;9.35;3.63;;;19.30;66.70;;;;;;10586850;28;20484;-67
2021/12/17 13:50:31;;;;;;;8.38;4.15;;;19.30;66.70;;;;;;10588484;28;20088;-67
2021/12/17 13:55:41;;;;;;;11.07;4.87;;;19.30;66.60;;;;;;10594333;27;20055;-67
2021/12/17 14:00:52;;;;;;;12.18;6.50;;;19.30;66.20;;;;;;10629486;27;20060;-67
2021/12/17 14:06:09;;;;;;;20.02;8.73;;;19.20;66.20;;;;;;10628547;27;20483;-67
2021/12/17 14:11:31;;;;;;;27.55;10.98;;;19.20;66.20;;;;;;10628146;27;20453;-67
2021/12/17 14:16:59;;;;;;;27.42;10.57;;;19.20;66.40;;;;;;10628566;27;20047;-67
2021/12/17 14:22:24;;;;;;;28.30;10.68;;;19.10;66.60;;;;;;10628432;27;20419;-67
2021/12/17 14:27:45;;;;;;;27.13;10.40;;;19.10;66.70;;;;;;10627026;27;20069;-67
2021/12/17 14:32:50;;;;;;;23.98;9.27;;;19.10;66.70;;;;;;10628014;27;20035;-67
2021/12/17 14:37:55;;;;;;;19.50;7.93;;;19.10;66.80;;;;;;10627263;27;20384;-67
2021/12/17 14:43:04;;;;;;;20.45;8.80;;;19.10;66.90;;;;;;10626839;27;20047;-67
2021/12/17 14:48:34;;;;;;;21.00;7.88;;;19.00;66.80;;;;;;10627265;27;20057;-67
2021/12/17 15:04:23;;;;;;;10.52;4.75;;;19.00;67.00;;;;;;10626658;27;20108;-67
2021/12/17 15:09:33;;;;;;;11.40;4.78;;;18.90;66.90;;;;;;10628184;27;20047;-67
2021/12/17 15:14:38;;;;;;;12.20;5.50;;;18.90;67.00;;;;;;10625678;27;20088;-67
2021/12/17 15:19:43;;;;;;;10.93;4.97;;;18.90;67.10;;;;;;10625272;27;20051;-67
2021/12/17 15:24:48;;;;;;;14.45;5.70;;;18.90;67.10;;;;;;10626171;27;20039;-67
2021/12/17 15:29:59;;;;;;;13.35;5.95;;;18.90;67.20;;;;;;10625675;27;20399;-66
2021/12/17 15:35:08;;;;;;;12.23;6.00;;;18.80;67.00;;;;;;10625105;27;20064;-66
2021/12/17 15:40:16;;;;;;;12.60;6.38;;;18.90;67.10;;;;;;10626427;27;20047;-67
2021/12/17 15:45:22;;;;;;;11.30;5.75;;;18.80;67.00;;;;;;10625224;27;20532;-66
2021/12/17 15:50:27;;;;;;;11.65;6.38;;;18.80;67.00;;;;;;10624323;27;20051;-66
2021/12/17 15:55:32;;;;;;;15.77;7.07;;;18.80;67.10;;;;;;10624264;27;20483;-66
2021/12/17 16:00:37;;;;;;;12.20;5.85;;;18.80;67.00;;;;;;10624243;27;20047;-66
2021/12/17 16:05:44;;;;;;;11.00;6.07;;;18.80;67.00;;;;;;10624933;27;20067;-66
2021/12/17 16:21:40;;;;;;;14.27;7.55;;;18.70;67.10;;;;;;10623696;28;20047;-67
2021/12/17 16:26:48;;;;;;;16.08;8.07;;;18.70;67.20;;;;;;10624127;28;20073;-66
2021/12/17 16:31:53;;;;;;;15.63;7.00;;;18.70;67.00;;;;;;10624133;28;20476;-66
2021/12/17 16:36:58;;;;;;;14.13;7.40;;;18.70;66.90;;;;;;10604955;28;20567;-67
2021/12/17 16:42:04;;;;;;;16.20;8.07;;;18.70;66.80;;;;;;10623211;28;20092;-67
2021/12/17 16:47:10;;;;;;;12.13;7.20;;;18.70;66.90;;;;;;10622954;28;20047;-66
2021/12/17 16:52:15;;;;;;;16.02;8.15;;;18.70;66.70;;;;;;10629984;27;20043;-67
2021/12/17 16:57:20;;;;;;;13.95;7.28;;;18.80;66.50;;;;;;10631786;27;20119;-66
2021/12/17 17:02:26;;;;;;;13.80;7.35;;;18.90;66.20;;;;;;10631040;27;20043;-67
2021/12/17 17:07:34;;;;;;;11.70;6.55;;;19.10;65.80;;;;;;10630648;27;20088;-67
2021/12/17 17:12:46;;;;;;;9.98;5.47;;;19.20;65.70;;;;;;10630806;27;20445;-67
2021/12/17 17:17:52;;;;;;;8.48;4.50;;;19.30;65.60;;;;;;10630309;27;20483;-67
2021/12/17 17:23:01;;;;;;;7.40;3.63;;;19.40;65.70;;;;;;10630351;27;20104;-67
2021/12/17 17:28:07;;;;;;;8.13;4.13;;;19.40;65.70;;;;;;10630084;27;20124;-67
2021/12/17 17:33:13;;;;;;;5.28;2.92;;;19.60;65.70;;;;;;10629634;27;20552;-67
2021/12/17 17:38:22;;;;;;;5.85;3.28;;;19.60;65.50;;;;;;10629721;27;20414;-67
2021/12/17 17:43:30;;;;;;;5.50;3.33;;;19.80;65.20;;;;;;10631740;27;20475;-67
2021/12/17 17:48:36;;;;;;;6.20;3.58;;;19.90;64.90;;;;;;10611059;27;20069;-67
2021/12/17 17:53:41;;;;;;;5.20;3.03;;;20.00;64.70;;;;;;10629068;27;20043;-67
2021/12/17 17:58:46;;;;;;;10.48;5.88;;;20.20;64.60;;;;;;10610679;27;20457;-67
2021/12/17 18:03:54;;;;;;;11.57;5.95;;;20.20;64.50;;;;;;10628267;27;20556;-67
2021/12/17 18:09:00;;;;;;;9.40;5.10;;;20.30;64.40;;;;;;10610511;27;20092;-67
2021/12/17 18:14:05;;;;;;;12.10;5.68;;;20.30;64.30;;;;;;10628124;27;20051;-67
2021/12/17 18:19:13;;;;;;;12.55;6.13;;;20.40;64.20;;;;;;10610368;27;20512;-67
2021/12/17 18:24:18;;;;;;;;;;;20.50;64.30;;;;;;10609471;27;20043;-67
2021/12/17 18:29:23;;;;;;;12.13;6.70;;;20.50;64.10;;;;;;10628084;27;19919;-67
2021/12/17 18:34:28;;;;;;;12.38;6.68;;;20.60;64.00;;;;;;10628196;27;20069;-67
2021/12/17 18:39:39;;;;;;;;;;;20.60;63.90;;;;;;10628147;27;20154;-67
2021/12/17 18:44:48;;;;;;;13.77;7.13;;;20.60;64.00;;;;;;10585626;28;19931;-67
2021/12/17 18:49:59;;;;;;;17.60;8.20;;;20.60;64.00;;;;;;10584191;28;20044;-67
2021/12/17 18:55:19;;;;;;;29.33;14.88;;;20.50;64.20;;;;;;10582379;27;20051;-65
2021/12/17 19:01:00;;;;;;;21.58;11.48;;;20.40;64.50;;;;;;10513548;28;20052;-63
2021/12/17 19:36:49;;;;;;;10.98;5.93;;;20.20;65.60;;;;;;10189245;29;20425;-66
2021/12/17 19:42:32;;;;;;;14.95;7.10;;;20.30;65.60;;;;;;10220672;29;20102;-65
2021/12/17 19:48:24;;;;;;;14.00;6.40;;;20.20;65.70;;;;;;10259197;28;20428;-66
2021/12/17 19:53:38;;;;;;;13.20;5.93;;;20.20;65.70;;;;;;10339902;28;20066;-67
2021/12/17 19:59:18;;;;;;;10.07;5.38;;;20.20;65.80;;;;;;10255857;28;20233;-66
2021/12/17 20:05:20;;;;;;;7.97;4.90;;;20.20;65.90;;;;;;10226261;29;20063;-68
2021/12/17 20:11:28;;;;;;;5.90;4.03;;;20.20;65.90;;;;;;10362386;28;20053;-69
2021/12/17 20:17:00;;;;;;;10.25;5.70;;;20.10;66.00;;;;;;10394788;28;20084;-66
2021/12/17 20:22:23;;;;;;;11.35;6.65;;;20.10;66.00;;;;;;10396530;28;20149;-68
2021/12/17 20:50:52;;;;;;;13.93;5.97;;;20.20;66.20;;;;;;10024514;29;20483;-68
2021/12/17 20:56:38;;;;;;;12.68;6.60;;;20.40;65.90;;;;;;10005538;29;20095;-67
2021/12/17 21:02:10;;;;;;;16.48;6.95;;;20.70;65.50;;;;;;9923009;29;20059;-68
2021/12/17 21:07:19;;;;;;;12.73;6.28;;;20.80;65.20;;;;;;9924896;29;20086;-67
2021/12/17 21:12:25;;;;;;;12.73;6.60;;;20.90;65.20;;;;;;10009296;29;20057;-66
2021/12/17 21:17:31;;;;;;;14.15;7.88;;;20.90;65.10;;;;;;10057711;29;20057;-69
2021/12/17 21:22:39;;;;;;;;;;;20.90;65.40;;;;;;10063038;29;20049;-69
2021/12/17 21:27:47;;;;;;;18.35;8.88;;;20.90;65.20;;;;;;10422961;28;19994;-69
2021/12/17 21:32:53;;;;;;;18.58;9.05;;;20.80;65.30;;;;;;10556133;28;20483;-69
2021/12/17 21:38:03;;;;;;;27.75;12.95;;;20.80;65.30;;;;;;10584846;28;20047;-70
2021/12/17 21:43:08;;;;;;;25.67;11.27;;;20.70;66.10;;;;;;10586675;28;20058;-64
2021/12/17 21:48:16;;;;;;;26.50;9.40;;;20.60;67.40;;;;;;10586384;28;20036;-65
2021/12/17 21:53:21;;;;;;;20.50;8.43;;;20.50;67.60;;;;;;10528304;28;20047;-67
2021/12/17 21:58:27;;;;;;;27.55;8.40;;;20.50;67.80;;;;;;10584264;27;20069;-67
2021/12/17 22:03:33;;;;;;;24.42;7.50;;;20.50;68.00;;;;;;10610220;27;20039;-66
2021/12/17 22:08:38;;;;;;;21.25;7.05;;;20.40;68.30;;;;;;10627716;27;20047;-66
2021/12/17 22:13:44;;;;;;;17.63;5.72;;;20.40;68.60;;;;;;10625924;27;20035;-66
2021/12/17 22:18:53;;;;;;;12.02;5.20;;;20.30;68.60;;;;;;10627829;27;20047;-66
2021/12/17 22:23:59;;;;;;;10.60;4.30;;;20.20;68.60;;;;;;10624815;27;20047;-66
2021/12/17 22:29:09;;;;;;;7.00;3.80;;;20.20;68.50;;;;;;10627854;27;20039;-66
2021/12/17 22:34:16;;;;;;;7.60;3.50;;;20.20;68.50;;;;;;10609279;27;20096;-66
2021/12/17 22:39:22;;;;;;;5.60;3.08;;;20.10;68.40;;;;;;10609697;27;20384;-66
2021/12/17 22:44:29;;;;;;;;;;;20.10;68.50;;;;;;10624908;27;20107;-66
2021/12/17 22:49:37;;;;;;;10.52;2.95;;;20.10;69.10;;;;;;10626603;27;19920;-66
2021/12/17 22:54:42;;;;;;;4.60;2.28;;;20.00;68.40;;;;;;10626565;27;20050;-66
2021/12/17 22:59:50;;;;;;;5.00;2.47;;;20.10;68.50;;;;;;10626714;27;20047;-67
2021/12/17 23:05:01;;;;;;;5.15;2.17;;;20.00;68.50;;;;;;10626831;27;20092;-66
2021/12/17 23:10:07;;;;;;;4.30;2.17;;;20.00;68.50;;;;;;10626532;27;20039;-67
2021/12/17 23:15:12;;;;;;;4.63;2.13;;;19.90;68.40;;;;;;10625621;27;20064;-66
2021/12/17 23:20:17;;;;;;;4.95;2.20;;;19.90;68.30;;;;;;10607771;27;20051;-67
2021/12/17 23:25:25;;;;;;;4.68;2.30;;;19.90;68.20;;;;;;10625306;27;20108;-67
2021/12/17 23:30:30;;;;;;;6.30;2.22;;;19.90;68.20;;;;;;10606984;27;20051;-67
2021/12/17 23:35:38;;;;;;;5.57;2.08;;;19.90;68.20;;;;;;10625582;27;20551;-67
2021/12/17 23:40:46;;;;;;;5.10;2.47;;;19.90;68.20;;;;;;10607453;27;20073;-67
2021/12/17 23:45:53;;;;;;;5.22;2.25;;;19.80;68.10;;;;;;10626235;27;20043;-67
2021/12/17 23:50:58;;;;;;;5.78;2.60;;;19.80;68.10;;;;;;10625141;27;20167;-67
2021/12/17 23:56:03;;;;;;;7.88;2.28;;;19.80;68.10;;;;;;10624975;27;20039;-67
